createdAt,value
2022-08-02T00:00:15.753Z,96350.38
2022-08-02T00:02:43.977Z,96350.09
2022-08-02T00:05:12.370Z,96356.88
2022-08-02T00:07:41.322Z,96343.44
2022-08-02T00:10:10.466Z,96337.72
2022-08-02T00:12:39.712Z,96335.72
2022-08-02T00:15:09.374Z,96333.91
2022-08-02T00:17:37.024Z,96335.31
2022-08-02T00:20:05.680Z,96344.47
2022-08-02T00:22:33.369Z,96342.16
2022-08-02T00:25:00.871Z,96344.00
2022-08-02T00:27:28.394Z,96332.94
2022-08-02T00:29:57.338Z,96341.56
2022-08-02T00:32:25.299Z,96337.53
2022-08-02T00:34:53.114Z,96340.28
2022-08-02T00:37:20.683Z,96333.22
2022-08-02T00:39:48.179Z,96337.50
2022-08-02T00:42:16.549Z,96338.09
2022-08-02T00:44:44.208Z,96342.84
2022-08-02T00:47:14.981Z,96337.41
2022-08-02T00:49:47.399Z,96338.19
2022-08-02T00:52:15.190Z,96341.34
2022-08-02T00:54:42.890Z,96339.81
2022-08-02T00:57:10.556Z,96345.69
2022-08-02T00:59:38.186Z,96340.13
2022-08-02T01:02:05.900Z,96338.19
2022-08-02T01:04:34.806Z,96347.91
2022-08-02T01:07:12.927Z,96335.78
2022-08-02T01:09:41.944Z,96337.72
2022-08-02T01:12:10.117Z,96338.03
2022-08-02T01:14:38.513Z,96332.03
2022-08-02T01:17:09.893Z,96326.91
2022-08-02T01:19:48.248Z,96326.88
2022-08-02T01:22:59.885Z,96327.25
2022-08-02T01:26:15.015Z,96330.84
2022-08-02T01:28:50.240Z,96325.09
2022-08-02T01:31:23.637Z,96320.47
2022-08-02T01:33:58.252Z,96329.59
2022-08-02T01:36:29.011Z,96329.22
2022-08-02T01:38:57.905Z,96324.78
2022-08-02T01:41:28.050Z,96323.31
2022-08-02T01:44:00.318Z,96322.25
2022-08-02T01:46:29.995Z,96319.97
2022-08-02T01:48:59.090Z,96326.25
2022-08-02T01:51:43.035Z,96316.47
2022-08-02T01:54:13.647Z,96308.25
2022-08-02T01:56:42.716Z,96312.56
2022-08-02T01:59:13.936Z,96312.00
2022-08-02T02:01:43.645Z,96321.84
2022-08-02T02:04:11.277Z,96324.09
2022-08-02T02:06:39.086Z,96317.53
2022-08-02T02:09:07.616Z,96323.25
2022-08-02T02:12:11.031Z,96328.34
2022-08-02T02:14:25.917Z,96328.91
2022-08-02T02:16:54.612Z,96326.41
2022-08-02T02:19:24.024Z,96322.63
2022-08-02T02:21:51.669Z,96323.91
2022-08-02T02:24:19.229Z,96321.88
2022-08-02T02:26:52.440Z,96323.94
2022-08-02T02:29:22.816Z,96328.53
2022-08-02T02:31:54.122Z,96331.72
2022-08-02T02:34:27.583Z,96337.78
2022-08-02T02:36:57.387Z,96346.81
2022-08-02T02:39:27.170Z,96352.69
2022-08-02T02:41:57.801Z,96354.84
2022-08-02T02:44:26.713Z,96355.00
2022-08-02T02:46:56.623Z,96355.22
2022-08-02T02:49:25.296Z,96356.69
2022-08-02T02:51:54.024Z,96357.91
2022-08-02T02:54:30.060Z,96371.13
2022-08-02T02:57:02.458Z,96363.06
2022-08-02T02:59:30.639Z,96366.72
2022-08-02T03:01:59.537Z,96365.88
2022-08-02T03:04:56.425Z,96365.72
2022-08-02T03:07:17.402Z,96377.72
2022-08-02T03:09:45.115Z,96379.16
2022-08-02T03:12:19.999Z,96379.56
2022-08-02T03:14:49.450Z,96382.06
2022-08-02T03:17:18.434Z,96389.91
2022-08-02T03:19:46.503Z,96385.59
2022-08-02T03:22:14.153Z,96385.56
2022-08-02T03:24:41.782Z,96388.69
2022-08-02T03:27:09.280Z,96384.38
2022-08-02T03:29:36.752Z,96390.16
2022-08-02T03:32:05.080Z,96391.59
2022-08-02T03:34:33.972Z,96391.59
2022-08-02T03:37:03.337Z,96394.69
2022-08-02T03:39:33.297Z,96395.31
2022-08-02T03:42:01.890Z,96398.22
2022-08-02T03:44:29.859Z,96395.91
2022-08-02T03:46:58.584Z,96393.66
2022-08-02T03:49:26.591Z,96398.19
2022-08-02T03:51:56.157Z,96398.81
2022-08-02T03:54:34.459Z,96394.50
2022-08-02T03:57:11.813Z,96399.03
2022-08-02T03:59:43.085Z,96395.28
2022-08-02T04:02:11.435Z,96389.06
2022-08-02T04:04:39.556Z,96386.53
2022-08-02T04:07:08.400Z,96390.69
2022-08-02T04:09:35.980Z,96393.00
2022-08-02T04:12:03.566Z,96395.47
2022-08-02T04:14:31.659Z,96388.47
2022-08-02T04:17:07.066Z,96398.22
2022-08-02T04:19:39.779Z,96383.94
2022-08-02T04:22:15.232Z,96381.69
2022-08-02T04:24:49.844Z,96386.59
2022-08-02T04:27:49.289Z,96381.31
2022-08-02T04:30:07.546Z,96385.88
2022-08-02T04:32:36.448Z,96379.66
2022-08-02T04:35:18.798Z,96374.31
2022-08-02T04:38:05.550Z,96383.00
2022-08-02T04:40:37.232Z,96384.28
2022-08-02T04:43:04.793Z,96400.44
2022-08-02T04:45:32.665Z,96395.56
2022-08-02T04:48:07.391Z,96402.53
2022-08-02T04:50:34.946Z,96408.78
2022-08-02T04:53:04.211Z,96403.50
2022-08-02T04:55:31.704Z,96410.88
2022-08-02T04:57:59.699Z,96409.66
2022-08-02T05:00:28.510Z,96421.31
2022-08-02T05:02:57.477Z,96413.50
2022-08-02T05:05:25.221Z,96419.19
2022-08-02T05:07:52.732Z,96414.72
2022-08-02T05:10:22.032Z,96416.63
2022-08-02T05:12:49.710Z,96412.41
2022-08-02T05:15:18.479Z,96411.06
2022-08-02T05:17:48.023Z,96419.59
2022-08-02T05:20:17.178Z,96424.22
2022-08-02T05:22:45.094Z,96420.03
2022-08-02T05:25:13.046Z,96420.66
2022-08-02T05:27:43.193Z,96413.28
2022-08-02T05:30:11.961Z,96415.91
2022-08-02T05:32:50.442Z,96418.63
2022-08-02T05:35:20.502Z,96430.59
2022-08-02T05:37:48.375Z,96425.59
2022-08-02T05:40:16.178Z,96426.81
2022-08-02T05:42:46.309Z,96421.50
2022-08-02T05:45:14.043Z,96422.63
2022-08-02T05:47:41.551Z,96420.50
2022-08-02T05:50:10.760Z,96430.03
2022-08-02T05:52:47.091Z,96418.97
2022-08-02T05:55:18.494Z,96419.78
2022-08-02T05:57:54.274Z,96420.56
2022-08-02T06:00:22.901Z,96420.50
2022-08-02T06:03:06.114Z,96422.59
2022-08-02T06:05:36.627Z,96421.66
2022-08-02T06:08:08.368Z,96416.72
2022-08-02T06:10:37.871Z,96420.44
2022-08-02T06:13:14.232Z,96426.31
2022-08-02T06:15:53.458Z,96430.06
2022-08-02T06:18:27.919Z,96434.28
2022-08-02T06:20:59.042Z,96433.41
2022-08-02T06:23:57.519Z,96449.28
2022-08-02T06:26:27.114Z,96443.28
2022-08-02T06:28:58.617Z,96444.69
2022-08-02T06:31:26.577Z,96441.66
2022-08-02T06:33:54.356Z,96435.59
2022-08-02T06:36:33.113Z,96432.28
2022-08-02T06:39:05.376Z,96426.59
2022-08-02T06:41:40.774Z,96433.47
2022-08-02T06:44:44.455Z,96443.22
2022-08-02T06:47:11.390Z,96441.66
2022-08-02T06:49:52.437Z,96444.50
2022-08-02T06:52:27.796Z,96437.47
2022-08-02T06:54:57.057Z,96436.38
2022-08-02T06:57:24.879Z,96437.97
2022-08-02T06:59:53.748Z,96437.44
2022-08-02T07:02:21.498Z,96438.38
2022-08-02T07:04:49.101Z,96435.97
2022-08-02T07:07:16.640Z,96440.84
2022-08-02T07:09:56.498Z,96433.56
2022-08-02T07:12:29.936Z,96438.31
2022-08-02T07:14:59.458Z,96434.84
2022-08-02T07:17:27.152Z,96433.00
2022-08-02T07:19:54.660Z,96436.53
2022-08-02T07:22:23.621Z,96429.50
2022-08-02T07:24:51.415Z,96440.56
2022-08-02T07:27:18.951Z,96429.66
2022-08-02T07:29:47.546Z,96431.03
2022-08-02T07:32:16.855Z,96437.91
2022-08-02T07:34:51.254Z,96431.69
2022-08-02T07:37:35.486Z,96436.81
2022-08-02T07:40:14.912Z,96437.50
2022-08-02T07:42:47.361Z,96432.44
2022-08-02T07:45:15.796Z,96429.91
2022-08-02T07:47:45.397Z,96423.19
2022-08-02T07:50:15.053Z,96432.13
2022-08-02T07:52:43.804Z,96424.09
2022-08-02T07:55:12.555Z,96421.28
2022-08-02T07:57:46.189Z,96420.03
2022-08-02T08:00:17.104Z,96412.75
2022-08-02T08:02:46.602Z,96417.59
2022-08-02T08:05:14.456Z,96413.53
2022-08-02T08:07:41.932Z,96402.03
2022-08-02T08:10:10.526Z,96406.63
2022-08-02T08:12:38.106Z,96405.44
2022-08-02T08:15:06.657Z,96400.41
2022-08-02T08:17:35.023Z,96401.28
2022-08-02T08:20:05.492Z,96403.06
2022-08-02T08:22:33.128Z,96412.16
2022-08-02T08:25:00.604Z,96403.16
2022-08-02T08:27:28.063Z,96404.44
2022-08-02T08:29:55.572Z,96398.88
2022-08-02T08:32:23.467Z,96407.66
2022-08-02T08:34:51.745Z,96410.25
2022-08-02T08:37:20.615Z,96406.81
2022-08-02T08:39:57.374Z,96408.03
2022-08-02T08:42:26.669Z,96410.91
2022-08-02T08:44:55.966Z,96406.00
2022-08-02T08:47:25.027Z,96409.59
2022-08-02T08:49:55.824Z,96411.34
2022-08-02T08:52:26.608Z,96409.78
2022-08-02T08:54:55.483Z,96414.56
2022-08-02T08:57:23.515Z,96420.88
2022-08-02T08:59:51.304Z,96410.78
2022-08-02T09:02:20.608Z,96415.06
2022-08-02T09:04:55.256Z,96421.81
2022-08-02T09:07:24.345Z,96413.41
2022-08-02T09:09:51.836Z,96420.16
2022-08-02T09:12:22.263Z,96424.66
2022-08-02T09:14:50.631Z,96417.88
2022-08-02T09:17:18.839Z,96417.94
2022-08-02T09:20:06.649Z,96409.91
2022-08-02T09:22:35.478Z,96416.88
2022-08-02T09:25:03.007Z,96413.84
2022-08-02T09:27:37.214Z,96408.47
2022-08-02T09:30:11.718Z,96412.59
2022-08-02T09:32:45.835Z,96409.22
2022-08-02T09:35:14.010Z,96411.09
2022-08-02T09:37:45.685Z,96416.31
2022-08-02T09:40:16.204Z,96402.47
2022-08-02T09:42:59.209Z,96408.88
2022-08-02T09:45:31.804Z,96410.31
2022-08-02T09:47:59.352Z,96413.81
2022-08-02T09:50:26.891Z,96421.22
2022-08-02T09:52:57.778Z,96411.09
2022-08-02T09:55:25.967Z,96397.34
2022-08-02T09:57:53.778Z,96410.72
2022-08-02T10:00:37.008Z,96415.28
2022-08-02T10:03:21.523Z,96399.63
2022-08-02T10:05:56.092Z,96402.81
2022-08-02T10:08:32.999Z,96397.44
2022-08-02T10:11:01.898Z,96404.06
2022-08-02T10:13:31.229Z,96399.34
2022-08-02T10:15:58.931Z,96397.84
2022-08-02T10:18:38.773Z,96397.53
2022-08-02T10:21:11.237Z,96395.94
2022-08-02T10:23:41.415Z,96401.53
2022-08-02T10:26:09.891Z,96396.34
2022-08-02T10:28:38.485Z,96398.53
2022-08-02T10:31:08.490Z,96396.63
2022-08-02T10:33:39.151Z,96392.41
2022-08-02T10:36:09.484Z,96385.94
2022-08-02T10:38:37.703Z,96386.81
2022-08-02T10:41:07.965Z,96377.75
2022-08-02T10:43:44.588Z,96365.53
2022-08-02T10:46:22.960Z,96354.34
2022-08-02T10:52:07.413Z,96361.84
2022-08-02T10:54:37.779Z,96353.53
2022-08-02T10:57:19.370Z,96360.50
2022-08-02T10:59:47.114Z,96352.91
2022-08-02T11:02:15.250Z,96356.44
2022-08-02T11:05:03.634Z,96351.34
2022-08-02T11:07:37.378Z,96349.44
2022-08-02T11:10:28.787Z,96359.53
2022-08-02T11:13:03.448Z,96346.06
2022-08-02T11:15:31.624Z,96339.31
2022-08-02T11:17:59.923Z,96344.19
2022-08-02T11:20:28.424Z,96353.69
2022-08-02T11:23:16.718Z,96351.81
2022-08-02T11:26:03.201Z,96356.31
2022-08-02T11:28:33.381Z,96356.13
2022-08-02T11:31:02.884Z,96343.31
2022-08-02T11:33:32.882Z,96347.53
2022-08-02T11:36:05.363Z,96352.72
2022-08-02T11:38:33.224Z,96365.25
2022-08-02T11:41:06.020Z,96365.69
2022-08-02T11:43:36.118Z,96361.28
2022-08-02T11:46:05.044Z,96361.28
2022-08-02T11:48:34.540Z,96365.84
2022-08-02T11:51:10.263Z,96364.22
2022-08-02T11:53:45.921Z,96358.78
2022-08-02T11:56:14.660Z,96350.03
2022-08-02T11:59:04.855Z,96353.44
2022-08-02T12:01:36.833Z,96348.31
2022-08-02T12:04:13.269Z,96343.84
2022-08-02T12:06:40.965Z,96348.66
2022-08-02T12:09:17.979Z,96337.22
2022-08-02T12:11:49.659Z,96341.50
2022-08-02T12:14:19.036Z,96332.13
2022-08-02T12:17:04.702Z,96334.13
2022-08-02T12:19:32.244Z,96331.53
2022-08-02T12:22:18.438Z,96328.91
2022-08-02T12:24:49.163Z,96336.53
2022-08-02T12:27:33.269Z,96327.84
2022-08-02T12:30:06.341Z,96331.81
2022-08-02T12:32:34.380Z,96328.97
2022-08-02T12:35:08.440Z,96323.56
2022-08-02T12:37:36.792Z,96321.66
2022-08-02T12:40:24.247Z,96315.19
2022-08-02T12:42:56.224Z,96314.91
2022-08-02T12:45:25.876Z,96319.63
2022-08-02T12:47:54.763Z,96313.25
2022-08-02T12:50:25.502Z,96310.63
2022-08-02T12:53:05.264Z,96308.34
2022-08-02T12:55:59.851Z,96307.56
2022-08-02T12:58:26.097Z,96306.28
2022-08-02T13:00:57.016Z,96297.97
2022-08-02T13:04:11.903Z,96303.94
2022-08-02T13:06:42.159Z,96294.50
2022-08-02T13:09:00.897Z,96288.47
2022-08-02T13:11:28.829Z,96286.03
2022-08-02T13:13:56.859Z,96294.16
2022-08-02T13:16:30.866Z,96291.50
2022-08-02T13:18:59.036Z,96283.31
2022-08-02T13:21:40.166Z,96287.69
2022-08-02T13:24:20.799Z,96295.81
2022-08-02T13:26:58.788Z,96287.28
2022-08-02T13:29:26.306Z,96288.47
2022-08-02T13:31:55.142Z,96282.22
2022-08-02T13:34:22.647Z,96274.53
2022-08-02T13:36:50.599Z,96277.03
2022-08-02T13:39:18.086Z,96271.97
2022-08-02T13:41:45.559Z,96271.16
2022-08-02T13:44:13.084Z,96260.59
2022-08-02T13:46:45.340Z,96267.78
2022-08-02T13:49:19.456Z,96264.91
2022-08-02T13:51:47.769Z,96263.34
2022-08-02T13:54:15.407Z,96269.47
2022-08-02T13:56:43.007Z,96263.72
2022-08-02T13:59:54.507Z,96259.06
2022-08-02T14:01:58.550Z,96258.41
2022-08-02T14:04:29.623Z,96255.75
2022-08-02T14:06:58.958Z,96249.41
2022-08-02T14:09:27.362Z,96256.38
2022-08-02T14:11:54.982Z,96249.53
2022-08-02T14:14:22.503Z,96256.63
2022-08-02T14:16:50.012Z,96247.84
2022-08-02T14:19:17.622Z,96248.53
2022-08-02T14:21:47.917Z,96244.13
2022-08-02T14:24:16.281Z,96244.72
2022-08-02T14:26:44.093Z,96242.38
2022-08-02T14:29:13.613Z,96234.03
2022-08-02T14:31:44.382Z,96239.25
2022-08-02T14:34:12.380Z,96241.25
2022-08-02T14:36:39.890Z,96230.63
2022-08-02T14:39:09.072Z,96235.75
2022-08-02T14:41:58.082Z,96243.22
2022-08-02T14:44:25.060Z,96240.44
2022-08-02T14:46:53.023Z,96244.69
2022-08-02T14:49:24.513Z,96244.41
2022-08-02T14:51:52.490Z,96245.63
2022-08-02T14:54:28.165Z,96242.88
2022-08-02T14:56:59.574Z,96243.34
2022-08-02T14:59:27.241Z,96236.97
2022-08-02T15:01:54.979Z,96235.50
2022-08-02T15:04:22.836Z,96232.06
2022-08-02T15:06:50.342Z,96232.63
2022-08-02T15:09:18.012Z,96234.66
2022-08-02T15:11:47.420Z,96232.88
2022-08-02T15:14:17.081Z,96224.38
2022-08-02T15:16:56.452Z,96232.84
2022-08-02T15:19:30.303Z,96228.28
2022-08-02T15:22:16.167Z,96221.47
2022-08-02T15:24:45.226Z,96227.56
2022-08-02T15:27:14.793Z,96221.41
2022-08-02T15:29:43.180Z,96215.59
2022-08-02T15:32:11.647Z,96223.97
2022-08-02T15:34:39.728Z,96210.91
2022-08-02T15:37:07.239Z,96223.25
2022-08-02T15:39:34.769Z,96221.38
2022-08-02T15:42:02.280Z,96208.22
2022-08-02T15:44:31.148Z,96218.69
2022-08-02T15:46:59.096Z,96219.34
2022-08-02T15:49:26.659Z,96214.34
2022-08-02T15:51:54.611Z,96216.00
2022-08-02T15:54:22.173Z,96212.69
2022-08-02T15:56:49.709Z,96216.75
2022-08-02T15:59:17.607Z,96230.34
2022-08-02T16:01:47.980Z,96230.34
2022-08-02T16:04:16.507Z,96233.69
2022-08-02T16:06:44.808Z,96230.22
2022-08-02T16:09:12.534Z,96230.75
2022-08-02T16:11:40.592Z,96237.63
2022-08-02T16:14:08.104Z,96237.16
2022-08-02T16:16:37.060Z,96234.25
2022-08-02T16:19:37.501Z,96235.66
2022-08-02T16:21:54.691Z,96232.69
2022-08-02T16:24:22.824Z,96235.25
2022-08-02T16:26:50.556Z,96227.72
2022-08-02T16:29:19.693Z,96222.13
2022-08-02T16:31:47.266Z,96220.56
2022-08-02T16:34:16.649Z,96216.78
2022-08-02T16:36:44.576Z,96214.50
2022-08-02T16:39:12.634Z,96220.72
2022-08-02T16:41:50.888Z,96214.00
2022-08-02T16:44:27.710Z,96211.31
2022-08-02T16:50:05.626Z,96205.78
2022-08-02T16:52:34.651Z,96204.31
2022-08-02T16:55:02.153Z,96200.69
2022-08-02T17:00:24.930Z,96202.31
2022-08-02T17:02:52.438Z,96207.81
2022-08-02T17:05:21.278Z,96208.47
2022-08-02T17:08:07.646Z,96209.47
2022-08-02T17:10:37.421Z,96214.34
2022-08-02T17:13:11.658Z,96211.66
2022-08-02T17:18:27.595Z,96212.00
2022-08-02T17:20:57.856Z,96206.75
2022-08-02T17:24:04.585Z,96210.53
2022-08-02T17:26:13.159Z,96209.19
2022-08-02T17:29:14.209Z,96213.88
2022-08-02T17:31:45.514Z,96215.34
2022-08-02T17:34:14.140Z,96212.38
2022-08-02T17:36:49.811Z,96215.69
2022-08-02T17:39:17.558Z,96224.19
2022-08-02T17:41:49.065Z,96216.53
2022-08-02T17:44:37.681Z,96217.66
2022-08-02T17:47:06.167Z,96212.53
2022-08-02T17:49:35.341Z,96228.31
2022-08-02T17:52:48.177Z,96218.59
2022-08-02T17:54:55.336Z,96219.41
2022-08-02T17:57:22.859Z,96221.75
2022-08-02T18:00:03.589Z,96223.22
2022-08-02T18:02:31.994Z,96227.22
2022-08-02T18:04:59.522Z,96217.97
2022-08-02T18:07:40.673Z,96224.09
2022-08-02T18:10:16.187Z,96229.03
2022-08-02T18:12:45.550Z,96225.41
2022-08-02T18:15:14.381Z,96228.34
2022-08-02T18:18:01.513Z,96224.69
2022-08-02T18:20:29.030Z,96227.72
2022-08-02T18:22:58.849Z,96220.44
2022-08-02T18:25:37.566Z,96223.47
2022-08-02T18:28:11.709Z,96218.91
2022-08-02T18:30:39.315Z,96224.19
2022-08-02T18:33:55.059Z,96221.50
2022-08-02T18:35:55.659Z,96221.00
2022-08-02T18:38:26.730Z,96222.63
2022-08-02T18:40:55.579Z,96226.47
2022-08-02T18:43:25.432Z,96219.66
2022-08-02T18:46:06.875Z,96224.25
2022-08-02T18:48:44.205Z,96222.03
2022-08-02T18:51:14.812Z,96229.38
2022-08-02T18:53:43.796Z,96239.13
2022-08-02T18:56:19.395Z,96238.84
2022-08-02T18:58:51.954Z,96248.00
2022-08-02T19:01:21.864Z,96247.97
2022-08-02T19:04:00.441Z,96245.78
2022-08-02T19:06:29.046Z,96250.59
2022-08-02T19:09:11.231Z,96257.03
2022-08-02T19:11:41.433Z,96258.72
2022-08-02T19:14:27.004Z,96260.06
2022-08-02T19:16:56.165Z,96265.94
2022-08-02T19:19:23.832Z,96262.59
2022-08-02T19:22:26.582Z,96260.63
2022-08-02T19:24:47.061Z,96257.56
2022-08-02T19:27:15.522Z,96258.34
2022-08-02T19:29:49.050Z,96259.63
2022-08-02T19:32:42.422Z,96263.31
2022-08-02T19:35:19.186Z,96262.50
2022-08-02T19:37:59.193Z,96264.88
2022-08-02T19:40:29.592Z,96270.91
2022-08-02T19:44:23.517Z,96267.31
2022-08-02T19:45:50.370Z,96279.72
2022-08-02T19:48:23.665Z,96275.00
2022-08-02T19:50:56.194Z,96274.19
2022-08-02T19:53:29.190Z,96271.06
2022-08-02T19:56:03.052Z,96277.88
2022-08-02T19:58:31.115Z,96281.06
2022-08-02T20:01:00.116Z,96281.41
2022-08-02T20:03:50.875Z,96285.66
2022-08-02T20:06:17.690Z,96284.75
2022-08-02T20:08:53.366Z,96282.78
2022-08-02T20:11:27.846Z,96288.78
2022-08-02T20:13:55.388Z,96290.78
2022-08-02T20:16:27.640Z,96285.50
2022-08-02T20:18:55.681Z,96283.16
2022-08-02T20:21:35.557Z,96290.91
2022-08-02T20:24:06.742Z,96284.34
2022-08-02T20:26:35.857Z,96285.72
2022-08-02T20:29:06.045Z,96278.91
2022-08-02T20:31:36.154Z,96279.25
2022-08-02T20:34:04.949Z,96274.66
2022-08-02T20:36:34.776Z,96277.16
2022-08-02T20:39:02.391Z,96277.94
2022-08-02T20:41:37.261Z,96278.66
2022-08-02T20:44:30.738Z,96279.31
2022-08-02T20:46:59.201Z,96281.75
2022-08-02T20:49:40.855Z,96280.09
2022-08-02T20:52:23.820Z,96274.41
2022-08-02T20:54:52.235Z,96278.25
2022-08-02T20:57:19.741Z,96277.88
2022-08-02T21:00:10.325Z,96275.16
2022-08-02T21:02:37.831Z,96277.63
2022-08-02T21:05:07.920Z,96280.72
2022-08-02T21:10:33.314Z,96294.75
2022-08-02T21:13:01.198Z,96288.31
2022-08-02T21:15:48.077Z,96284.31
2022-08-02T21:18:23.580Z,96284.31
2022-08-02T21:21:04.087Z,96279.13
2022-08-02T21:23:31.563Z,96278.91
2022-08-02T21:26:04.276Z,96284.78
2022-08-02T21:31:20.639Z,96275.16
2022-08-02T21:33:57.264Z,96277.38
2022-08-02T21:36:31.085Z,96280.22
2022-08-02T21:38:59.935Z,96277.81
2022-08-02T21:41:39.952Z,96282.31
2022-08-02T21:44:16.392Z,96278.97
2022-08-02T21:46:46.520Z,96273.53
2022-08-02T21:49:17.276Z,96278.72
2022-08-02T21:51:49.327Z,96270.84
2022-08-02T21:54:20.154Z,96278.50
2022-08-02T21:57:06.125Z,96279.53
2022-08-02T21:59:35.007Z,96276.13
2022-08-02T22:02:03.850Z,96284.50
2022-08-02T22:04:36.083Z,96278.00
2022-08-02T22:07:03.607Z,96280.97
2022-08-02T22:09:44.650Z,96279.53
2022-08-02T22:12:17.599Z,96286.53
2022-08-02T22:14:49.673Z,96286.25
2022-08-02T22:17:50.737Z,96291.50
2022-08-02T22:20:12.529Z,96292.69
2022-08-02T22:22:40.220Z,96298.34
2022-08-02T22:25:10.121Z,96301.69
2022-08-02T22:28:35.976Z,96301.94
2022-08-02T22:30:37.136Z,96300.69
2022-08-02T22:33:33.130Z,96299.94
2022-08-02T22:36:02.095Z,96296.94
2022-08-02T22:38:29.936Z,96304.53
2022-08-02T22:40:57.406Z,96304.34
2022-08-02T22:43:24.904Z,96301.44
2022-08-02T22:45:52.385Z,96315.97
2022-08-02T22:48:21.207Z,96313.13
2022-08-02T22:50:52.371Z,96311.34
2022-08-02T22:53:35.547Z,96309.44
2022-08-02T22:56:03.630Z,96311.19
2022-08-02T22:58:32.080Z,96312.09
2022-08-02T22:58:34.851Z,96212.66
2022-08-02T22:58:50.009Z,96199.56
2022-08-02T22:58:50.792Z,96211.25
2022-08-02T22:59:01.821Z,96287.81
2022-08-02T22:59:12.330Z,96282.22
2022-08-02T23:01:00.015Z,96310.53
2022-08-02T23:03:29.583Z,96312.69
2022-08-02T23:05:57.562Z,96306.81
2022-08-02T23:08:25.437Z,96307.88
2022-08-02T23:10:53.016Z,96310.44
2022-08-02T23:13:21.763Z,96306.31
2022-08-02T23:16:09.109Z,96304.66
2022-08-02T23:18:55.698Z,96300.53
2022-08-02T23:21:46.171Z,96305.53
2022-08-02T23:24:10.904Z,96299.03
2022-08-02T23:26:38.556Z,96302.31
2022-08-02T23:29:06.049Z,96300.75
2022-08-02T23:31:38.228Z,96305.59
2022-08-02T23:34:07.315Z,96307.03
2022-08-02T23:36:35.121Z,96306.97
2022-08-02T23:39:02.674Z,96316.56
2022-08-02T23:41:30.167Z,96311.66
2022-08-02T23:44:13.082Z,96309.13
2022-08-02T23:46:42.826Z,96308.41
2022-08-02T23:49:12.854Z,96313.06
2022-08-02T23:51:40.476Z,96313.75
2022-08-02T23:54:08.106Z,96308.13
2022-08-02T23:56:35.639Z,96308.53
2022-08-02T23:59:03.191Z,96314.28
